Time;durP1;ratioP1;P1;durP2;ratioP2;P2;SDS_P1;SDS_P2;PMS_P1;PMS_P2;Temp;Humidity;BMP_temperature;BMP_pressure;BME280_temperature;BME280_humidity;BME280_pressure;Samples;Min_cycle;Max_cycle;Signal;HPM_P1;HPM_P2
2021/09/03 00:00:20;;;;;;;13.48;8.18;;;14.00;99.90;;;;;;5042946;28;20017;-57
2021/09/03 00:02:47;;;;;;;11.48;7.88;;;14.00;99.90;;;;;;5049013;28;20103;-59
2021/09/03 00:05:15;;;;;;;13.25;7.78;;;14.00;99.90;;;;;;5052097;28;20025;-59
2021/09/03 00:07:41;;;;;;;14.23;8.35;;;14.00;99.90;;;;;;5051186;28;20052;-58
2021/09/03 00:10:09;;;;;;;14.85;8.15;;;13.90;99.90;;;;;;5053939;28;20032;-59
2021/09/03 00:12:35;;;;;;;11.85;8.85;;;13.90;99.90;;;;;;5052087;28;20029;-59
2021/09/03 00:15:01;;;;;;;11.57;7.90;;;13.80;99.90;;;;;;5054400;28;20063;-57
2021/09/03 00:17:26;;;;;;;12.75;8.35;;;13.80;99.90;;;;;;5048430;28;20045;-56
2021/09/03 00:19:52;;;;;;;12.55;7.65;;;13.70;99.90;;;;;;5061810;28;20537;-57
2021/09/03 00:22:18;;;;;;;12.23;8.55;;;13.70;99.90;;;;;;5045535;28;20443;-58
2021/09/03 00:24:44;;;;;;;12.27;7.50;;;13.70;99.90;;;;;;5048146;28;20432;-59
2021/09/03 00:27:10;;;;;;;15.23;9.57;;;13.70;99.90;;;;;;5043810;28;20491;-57
2021/09/03 00:29:36;;;;;;;13.07;9.05;;;13.60;99.90;;;;;;5045280;28;20045;-59
2021/09/03 00:32:02;;;;;;;14.52;9.27;;;13.60;99.90;;;;;;5046318;28;20039;-57
2021/09/03 00:34:27;;;;;;;16.88;8.65;;;13.50;99.90;;;;;;5040924;28;20038;-57
2021/09/03 00:36:53;;;;;;;14.85;9.55;;;13.50;99.90;;;;;;5046962;28;20033;-56
2021/09/03 00:39:19;;;;;;;14.63;8.75;;;13.40;99.90;;;;;;5044366;28;20025;-57
2021/09/03 00:41:44;;;;;;;14.48;8.82;;;13.40;99.90;;;;;;5043333;28;20039;-59
2021/09/03 00:44:10;;;;;;;18.83;7.95;;;13.30;99.90;;;;;;5040129;28;20020;-57
2021/09/03 00:46:35;;;;;;;12.15;8.98;;;13.20;99.90;;;;;;5043764;28;20114;-58
2021/09/03 00:49:01;;;;;;;14.18;9.23;;;13.10;99.90;;;;;;5047926;28;20083;-58
2021/09/03 00:51:27;;;;;;;14.27;8.73;;;13.10;99.90;;;;;;5038200;28;20527;-56
2021/09/03 00:53:52;;;;;;;13.68;9.82;;;13.10;99.90;;;;;;5047367;28;20439;-57
2021/09/03 00:56:18;;;;;;;16.33;9.90;;;13.10;99.90;;;;;;5042864;28;20029;-59
2021/09/03 00:58:43;;;;;;;11.98;9.00;;;13.00;99.90;;;;;;5039659;28;20060;-59
2021/09/03 01:01:09;;;;;;;14.27;10.00;;;13.00;99.90;;;;;;5042059;28;20492;-55
2021/09/03 01:03:35;;;;;;;19.88;9.65;;;13.00;99.90;;;;;;5043486;28;20399;-59
2021/09/03 01:06:03;;;;;;;19.58;10.07;;;12.90;99.90;;;;;;5046003;28;20037;-55
2021/09/03 01:08:30;;;;;;;16.17;9.85;;;12.90;99.90;;;;;;5044154;28;20053;-59
2021/09/03 01:10:55;;;;;;;17.20;9.77;;;12.90;99.90;;;;;;5041679;28;20033;-58
2021/09/03 01:13:21;;;;;;;17.05;9.90;;;12.90;99.90;;;;;;5039987;28;20033;-59
2021/09/03 01:15:46;;;;;;;13.63;8.75;;;12.90;99.90;;;;;;5048125;28;20024;-59
2021/09/03 01:18:12;;;;;;;18.05;9.57;;;12.90;99.90;;;;;;5047558;28;20021;-59
2021/09/03 01:20:37;;;;;;;14.88;9.80;;;12.90;99.90;;;;;;5047548;28;20126;-59
2021/09/03 01:23:03;;;;;;;13.75;9.25;;;12.90;99.90;;;;;;5037041;28;20080;-55
2021/09/03 01:25:29;;;;;;;14.18;9.45;;;13.00;99.90;;;;;;5048981;28;20040;-56
2021/09/03 01:27:55;;;;;;;15.02;8.73;;;12.90;99.90;;;;;;5043283;28;20029;-59
2021/09/03 01:30:20;;;;;;;17.67;8.88;;;12.90;99.90;;;;;;5045469;28;20032;-57
2021/09/03 01:32:47;;;;;;;15.70;9.13;;;12.90;99.90;;;;;;5039982;28;20026;-56
2021/09/03 01:35:13;;;;;;;13.07;8.30;;;12.90;99.90;;;;;;5048018;28;20020;-58
2021/09/03 01:37:38;;;;;;;14.65;8.88;;;12.90;99.90;;;;;;5045554;28;20029;-59
2021/09/03 01:40:05;;;;;;;13.98;8.93;;;12.90;99.90;;;;;;5037721;28;20033;-57
2021/09/03 01:42:31;;;;;;;14.30;9.60;;;12.80;99.90;;;;;;5043388;28;20052;-59
2021/09/03 01:44:56;;;;;;;12.63;9.50;;;12.80;99.90;;;;;;5043157;28;20452;-58
2021/09/03 01:47:22;;;;;;;21.52;10.25;;;12.80;99.90;;;;;;5037419;28;20021;-59
2021/09/03 01:49:48;;;;;;;14.95;10.23;;;12.80;99.90;;;;;;5040184;28;20037;-57
2021/09/03 01:52:13;;;;;;;17.67;9.85;;;12.80;99.90;;;;;;5043950;28;20028;-58
2021/09/03 01:54:39;;;;;;;16.38;9.73;;;12.70;99.90;;;;;;5048913;28;20079;-58
2021/09/03 01:57:04;;;;;;;17.58;9.75;;;12.70;99.90;;;;;;5034709;28;20021;-60
2021/09/03 01:59:30;;;;;;;19.25;10.60;;;12.60;99.90;;;;;;5048138;28;20037;-54
2021/09/03 02:01:55;;;;;;;14.43;10.07;;;12.60;99.90;;;;;;5046223;28;20032;-59
2021/09/03 02:04:21;;;;;;;17.77;9.93;;;12.60;99.90;;;;;;5039783;28;20035;-59
2021/09/03 02:06:46;;;;;;;16.17;9.93;;;12.60;99.90;;;;;;5043677;28;20035;-57
2021/09/03 02:09:12;;;;;;;17.90;9.95;;;12.60;99.90;;;;;;5040669;28;20488;-59
2021/09/03 02:11:38;;;;;;;17.70;9.65;;;12.60;99.90;;;;;;5043316;28;20043;-52
2021/09/03 02:14:03;;;;;;;16.95;9.50;;;12.60;99.90;;;;;;5044657;28;20112;-60
2021/09/03 02:16:29;;;;;;;15.82;10.45;;;12.70;99.90;;;;;;5036962;28;20602;-58
2021/09/03 02:18:54;;;;;;;15.13;9.43;;;12.60;99.90;;;;;;5034549;28;20096;-58
2021/09/03 02:21:20;;;;;;;15.93;10.00;;;12.60;99.90;;;;;;5044615;28;20029;-58
2021/09/03 02:23:46;;;;;;;18.13;10.00;;;12.60;99.90;;;;;;5040669;28;20415;-60
2021/09/03 02:26:11;;;;;;;12.88;9.73;;;12.50;99.90;;;;;;5046835;28;20084;-55
2021/09/03 02:28:37;;;;;;;17.65;10.65;;;12.50;99.90;;;;;;5039354;28;20028;-57
2021/09/03 02:31:03;;;;;;;16.80;10.70;;;12.50;99.90;;;;;;5041680;28;20043;-58
2021/09/03 02:33:28;;;;;;;17.33;10.55;;;12.50;99.90;;;;;;5049104;28;20506;-59
2021/09/03 02:35:54;;;;;;;17.08;10.75;;;12.40;99.90;;;;;;5051484;28;20401;-56
2021/09/03 02:38:19;;;;;;;18.15;10.63;;;12.40;99.90;;;;;;5046260;28;20017;-55
2021/09/03 02:40:45;;;;;;;20.90;9.98;;;12.40;99.90;;;;;;5057605;28;20037;-57
2021/09/03 02:43:10;;;;;;;18.90;10.55;;;12.30;99.90;;;;;;5042045;28;20037;-59
2021/09/03 02:45:36;;;;;;;20.77;11.05;;;12.40;99.90;;;;;;5039178;28;20096;-56
2021/09/03 02:48:02;;;;;;;16.95;11.13;;;12.40;99.90;;;;;;5049089;28;20026;-59
2021/09/03 02:50:31;;;;;;;15.68;10.20;;;12.30;99.90;;;;;;5038795;28;20038;-58
2021/09/03 02:52:58;;;;;;;16.75;9.15;;;12.40;99.90;;;;;;5051167;28;20025;-57
2021/09/03 02:55:28;;;;;;;19.40;10.68;;;12.30;99.90;;;;;;5047789;28;20019;-57
2021/09/03 02:57:54;;;;;;;15.20;11.02;;;12.30;99.90;;;;;;5045277;28;20025;-59
2021/09/03 03:00:19;;;;;;;14.02;10.07;;;12.30;99.90;;;;;;5053265;28;20075;-59
2021/09/03 03:02:45;;;;;;;16.48;11.00;;;12.20;99.90;;;;;;5050430;28;20029;-58
2021/09/03 03:05:11;;;;;;;15.48;10.57;;;12.20;99.90;;;;;;5051821;28;20522;-55
2021/09/03 03:07:37;;;;;;;15.90;10.93;;;12.20;99.90;;;;;;5044771;28;20025;-56
2021/09/03 03:10:07;;;;;;;15.77;10.70;;;12.20;99.90;;;;;;5044927;28;20048;-55
2021/09/03 03:12:34;;;;;;;17.27;10.95;;;12.20;99.90;;;;;;5043385;28;20396;-56
2021/09/03 03:14:59;;;;;;;18.98;11.48;;;12.20;99.90;;;;;;5046560;28;20043;-57
2021/09/03 03:17:26;;;;;;;15.55;11.63;;;12.10;99.90;;;;;;5048753;28;20020;-59
2021/09/03 03:19:52;;;;;;;17.98;11.73;;;12.10;99.90;;;;;;5047899;28;20036;-53
2021/09/03 03:22:18;;;;;;;14.50;11.13;;;12.10;99.90;;;;;;5041252;28;20025;-55
2021/09/03 03:24:44;;;;;;;19.02;11.32;;;12.10;99.90;;;;;;5045410;28;20399;-59
2021/09/03 03:27:10;;;;;;;20.70;11.52;;;12.10;99.90;;;;;;5043338;28;20104;-57
2021/09/03 03:29:35;;;;;;;12.95;10.35;;;12.10;99.90;;;;;;5045663;28;20434;-57
2021/09/03 03:32:01;;;;;;;16.60;11.35;;;12.10;99.90;;;;;;5046599;28;20025;-58
2021/09/03 03:34:27;;;;;;;14.65;10.82;;;12.10;99.90;;;;;;5043131;28;20415;-56
2021/09/03 03:36:53;;;;;;;22.05;11.40;;;12.10;99.90;;;;;;5051219;28;20526;-57
2021/09/03 03:39:18;;;;;;;18.67;11.05;;;12.10;99.90;;;;;;5046110;28;20036;-55
2021/09/03 03:41:44;;;;;;;14.88;10.80;;;12.10;99.90;;;;;;5044263;28;20479;-55
2021/09/03 03:44:10;;;;;;;18.60;10.77;;;12.10;99.90;;;;;;5038470;28;20028;-55
2021/09/03 03:46:35;;;;;;;12.70;10.48;;;12.10;99.90;;;;;;5048529;28;20029;-56
2021/09/03 03:49:01;;;;;;;18.33;11.05;;;12.10;99.90;;;;;;5036999;28;20021;-57
2021/09/03 03:51:26;;;;;;;18.98;10.48;;;12.10;99.90;;;;;;5051385;28;20483;-58
2021/09/03 03:53:52;;;;;;;16.35;10.85;;;12.10;99.90;;;;;;5046858;28;20110;-57
2021/09/03 03:56:17;;;;;;;17.13;11.15;;;12.10;99.90;;;;;;5045738;28;20060;-55
2021/09/03 03:58:43;;;;;;;13.82;11.05;;;12.00;99.90;;;;;;5043106;28;20040;-58
2021/09/03 04:01:09;;;;;;;19.75;12.05;;;12.00;99.90;;;;;;5049240;28;20032;-57
2021/09/03 04:03:35;;;;;;;19.95;11.07;;;12.00;99.90;;;;;;5042521;28;20041;-55
2021/09/03 04:06:00;;;;;;;21.23;10.57;;;12.00;99.90;;;;;;5043657;28;20553;-58
2021/09/03 04:08:26;;;;;;;16.73;11.38;;;11.90;99.90;;;;;;5044297;28;20086;-58
2021/09/03 04:10:51;;;;;;;21.25;11.65;;;11.90;99.90;;;;;;5045825;28;20032;-57
2021/09/03 04:13:18;;;;;;;17.75;10.95;;;11.90;99.90;;;;;;5049783;28;20025;-56
2021/09/03 04:15:43;;;;;;;25.02;12.05;;;11.90;99.90;;;;;;5043824;28;20103;-56
2021/09/03 04:18:09;;;;;;;17.38;11.10;;;11.90;99.90;;;;;;5046715;28;20116;-55
2021/09/03 04:20:34;;;;;;;16.83;11.07;;;11.90;99.90;;;;;;5047017;28;20624;-57
2021/09/03 04:23:00;;;;;;;16.92;11.85;;;11.90;99.90;;;;;;5046179;28;20021;-58
2021/09/03 04:25:26;;;;;;;18.48;11.02;;;11.90;99.90;;;;;;5045316;28;20025;-56
2021/09/03 04:27:51;;;;;;;18.15;11.57;;;11.90;99.90;;;;;;5048435;28;20033;-59
2021/09/03 04:30:17;;;;;;;17.08;11.75;;;12.00;99.90;;;;;;5046625;28;20104;-55
2021/09/03 04:32:42;;;;;;;14.65;11.23;;;11.90;99.90;;;;;;5048031;28;20510;-57
2021/09/03 04:35:09;;;;;;;16.45;11.88;;;11.90;99.90;;;;;;5043991;28;20104;-58
2021/09/03 04:37:40;;;;;;;17.58;11.50;;;11.90;99.90;;;;;;5047795;28;20503;-58
2021/09/03 04:40:06;;;;;;;20.73;11.00;;;11.90;99.90;;;;;;5047504;28;20079;-58
2021/09/03 04:42:32;;;;;;;16.25;10.45;;;11.90;99.90;;;;;;5044663;28;20021;-58
2021/09/03 04:44:57;;;;;;;17.02;11.35;;;11.80;99.90;;;;;;5047286;28;20381;-56
2021/09/03 04:47:23;;;;;;;18.00;11.75;;;11.80;99.90;;;;;;5041555;28;20072;-57
2021/09/03 04:49:48;;;;;;;18.02;11.98;;;11.80;99.90;;;;;;5047418;28;20397;-58
2021/09/03 04:52:14;;;;;;;21.25;11.77;;;11.80;99.90;;;;;;5040182;28;20036;-58
2021/09/03 04:54:39;;;;;;;14.55;11.13;;;11.80;99.90;;;;;;5049850;28;20033;-56
2021/09/03 04:57:05;;;;;;;14.63;11.07;;;11.70;99.90;;;;;;5040410;28;20017;-56
2021/09/03 04:59:31;;;;;;;18.13;12.20;;;11.70;99.90;;;;;;5041322;28;20373;-55
2021/09/03 05:01:56;;;;;;;20.23;12.25;;;11.70;99.90;;;;;;5052128;28;20385;-58
2021/09/03 05:04:22;;;;;;;17.85;11.85;;;11.70;99.90;;;;;;5045884;28;20037;-55
2021/09/03 05:06:47;;;;;;;16.15;11.25;;;11.70;99.90;;;;;;5052326;28;20044;-56
2021/09/03 05:09:13;;;;;;;16.08;11.07;;;11.80;99.90;;;;;;5053481;28;20381;-59
2021/09/03 05:11:38;;;;;;;17.50;11.10;;;11.90;99.90;;;;;;5052801;28;20380;-60
2021/09/03 05:14:04;;;;;;;15.70;10.43;;;11.90;99.90;;;;;;5049871;28;20632;-59
2021/09/03 05:16:29;;;;;;;19.27;10.30;;;11.90;99.90;;;;;;5047662;28;20109;-59
2021/09/03 05:18:55;;;;;;;16.40;11.68;;;11.90;99.90;;;;;;5026325;28;20135;-58
2021/09/03 05:21:20;;;;;;;21.45;11.88;;;11.90;99.90;;;;;;5044885;28;20533;-58
2021/09/03 05:23:46;;;;;;;15.82;10.63;;;12.00;99.90;;;;;;5049719;28;20468;-57
2021/09/03 05:26:11;;;;;;;18.27;9.70;;;12.10;99.90;;;;;;5046899;28;20033;-55
2021/09/03 05:28:38;;;;;;;16.02;9.80;;;12.20;99.90;;;;;;5047846;28;20039;-55
2021/09/03 05:31:04;;;;;;;16.63;10.13;;;12.30;99.90;;;;;;5046577;28;20029;-58
2021/09/03 05:33:29;;;;;;;13.25;10.25;;;12.40;99.90;;;;;;5048935;28;20028;-59
2021/09/03 05:35:55;;;;;;;14.00;8.85;;;12.40;99.90;;;;;;5046185;28;20113;-59
2021/09/03 05:38:21;;;;;;;12.15;10.00;;;12.50;99.90;;;;;;5045270;28;20483;-57
2021/09/03 05:40:47;;;;;;;14.68;10.07;;;12.50;99.90;;;;;;5048859;28;20037;-58
2021/09/03 05:43:12;;;;;;;18.45;9.05;;;12.60;99.90;;;;;;5047624;28;20025;-58
2021/09/03 05:45:39;;;;;;;12.20;8.88;;;12.60;99.90;;;;;;5049971;28;20387;-58
2021/09/03 05:48:05;;;;;;;12.70;9.25;;;12.70;99.90;;;;;;5048519;28;20021;-58
2021/09/03 05:50:30;;;;;;;12.90;8.73;;;13.00;99.90;;;;;;5049383;28;20032;-58
2021/09/03 05:52:56;;;;;;;12.25;8.55;;;13.30;99.90;;;;;;5049227;28;20568;-59
2021/09/03 05:55:22;;;;;;;13.20;8.00;;;13.50;99.90;;;;;;5040367;28;20467;-59
2021/09/03 05:57:48;;;;;;;11.43;8.48;;;13.80;99.90;;;;;;5041684;28;20021;-58
2021/09/03 06:00:14;;;;;;;13.93;7.65;;;13.90;99.90;;;;;;5046114;28;20021;-57
2021/09/03 06:02:39;;;;;;;11.13;7.60;;;14.10;99.90;;;;;;5047760;28;20029;-56
2021/09/03 06:05:05;;;;;;;13.50;7.53;;;14.20;99.90;;;;;;5043348;28;20026;-59
2021/09/03 06:07:31;;;;;;;9.85;7.20;;;14.40;99.90;;;;;;5038032;28;20029;-57
2021/09/03 06:09:57;;;;;;;14.77;8.88;;;14.50;99.90;;;;;;5048714;28;20048;-59
2021/09/03 06:12:22;;;;;;;15.43;7.68;;;14.80;99.90;;;;;;5043833;28;20029;-59
2021/09/03 06:14:48;;;;;;;11.48;8.13;;;14.90;99.90;;;;;;5041725;28;20032;-56
2021/09/03 06:17:17;;;;;;;15.02;7.30;;;15.00;99.90;;;;;;5043943;28;20022;-56
2021/09/03 06:19:42;;;;;;;12.95;7.28;;;15.10;99.90;;;;;;5036347;28;20019;-53
2021/09/03 06:22:09;;;;;;;11.25;7.63;;;15.50;99.90;;;;;;5026076;28;20051;-55
2021/09/03 06:24:35;;;;;;;13.05;7.72;;;15.80;99.90;;;;;;5042437;28;20127;-58
2021/09/03 06:27:06;;;;;;;12.27;7.25;;;15.90;99.90;;;;;;5044430;28;20020;-57
2021/09/03 06:29:45;;;;;;;11.50;7.32;;;16.00;99.90;;;;;;5050514;28;20040;-59
2021/09/03 06:32:29;;;;;;;14.25;7.10;;;16.20;99.90;;;;;;5045318;28;20403;-59
2021/09/03 06:34:54;;;;;;;;;;;16.40;99.90;;;;;;5051209;28;20537;-58
2021/09/03 06:37:21;;;;;;;9.35;6.38;;;16.40;99.90;;;;;;5053219;28;19909;-56
2021/09/03 06:39:48;;;;;;;9.82;6.78;;;16.60;99.90;;;;;;5048641;28;20079;-58
2021/09/03 06:42:14;;;;;;;11.63;6.47;;;16.50;99.90;;;;;;5043890;28;20028;-59
2021/09/03 06:44:40;;;;;;;14.88;6.82;;;16.80;99.90;;;;;;5044559;28;20071;-57
2021/09/03 06:47:07;;;;;;;10.40;5.63;;;17.70;99.90;;;;;;5039143;28;20030;-56
2021/09/03 06:49:33;;;;;;;10.50;5.22;;;19.20;99.90;;;;;;5045310;28;20036;-58
2021/09/03 06:51:59;;;;;;;6.47;4.93;;;20.30;99.90;;;;;;5042021;28;20416;-58
2021/09/03 06:54:25;;;;;;;9.73;6.05;;;21.00;99.90;;;;;;5040355;28;20033;-56
2021/09/03 06:56:51;;;;;;;10.93;5.50;;;21.70;99.90;;;;;;5037287;28;20033;-59
2021/09/03 06:59:16;;;;;;;8.45;5.20;;;22.30;99.90;;;;;;5043665;28;20427;-57
2021/09/03 07:01:42;;;;;;;9.18;5.60;;;23.60;97.70;;;;;;5047875;28;20033;-54
2021/09/03 07:04:07;;;;;;;14.85;5.63;;;24.10;97.40;;;;;;5048420;28;20551;-58
2021/09/03 07:06:33;;;;;;;14.48;5.63;;;24.80;95.40;;;;;;5048132;28;20522;-58
2021/09/03 07:08:59;;;;;;;6.85;4.55;;;25.50;95.10;;;;;;5048415;28;20033;-58
2021/09/03 07:11:25;;;;;;;8.48;5.13;;;26.20;93.40;;;;;;5046401;28;20033;-59
2021/09/03 07:13:50;;;;;;;10.20;4.65;;;26.60;92.40;;;;;;5044877;28;20033;-58
2021/09/03 07:16:16;;;;;;;6.00;5.03;;;27.30;91.00;;;;;;5030608;28;20052;-59
2021/09/03 07:18:42;;;;;;;7.20;5.47;;;27.10;90.60;;;;;;5048158;28;20044;-57
2021/09/03 07:21:07;;;;;;;11.70;6.43;;;27.40;90.30;;;;;;5045324;28;20459;-57
2021/09/03 07:23:33;;;;;;;10.65;6.50;;;27.80;88.10;;;;;;5048485;28;20033;-59
2021/09/03 07:26:01;;;;;;;10.68;6.60;;;27.90;88.10;;;;;;5039108;28;20553;-59
2021/09/03 07:28:27;;;;;;;10.25;6.88;;;28.20;87.30;;;;;;5048726;28;20479;-59
2021/09/03 07:30:53;;;;;;;11.23;7.65;;;27.30;86.60;;;;;;5048899;28;20037;-57
2021/09/03 07:33:18;;;;;;;12.80;6.80;;;27.50;87.70;;;;;;5052277;28;20063;-59
2021/09/03 07:35:45;;;;;;;11.15;6.68;;;28.00;86.70;;;;;;5051207;28;20499;-56
2021/09/03 07:38:11;;;;;;;12.20;7.22;;;28.50;85.30;;;;;;5041004;28;20014;-58
2021/09/03 07:40:37;;;;;;;9.27;6.75;;;28.60;83.80;;;;;;5050895;28;20496;-61
2021/09/03 07:43:08;;;;;;;10.55;6.40;;;27.90;84.70;;;;;;5042961;28;20100;-55
2021/09/03 07:45:35;;;;;;;9.45;6.10;;;28.20;84.70;;;;;;5047002;28;20037;-60
2021/09/03 07:48:01;;;;;;;11.85;5.90;;;28.30;83.70;;;;;;5045856;28;20025;-60
2021/09/03 07:50:28;;;;;;;8.25;6.20;;;27.70;83.50;;;;;;5046462;28;20029;-59
2021/09/03 07:52:53;;;;;;;13.82;6.15;;;27.50;84.40;;;;;;5048627;28;20029;-60
2021/09/03 07:55:19;;;;;;;9.73;6.43;;;27.60;84.20;;;;;;5041109;28;20388;-57
2021/09/03 07:57:45;;;;;;;12.02;6.32;;;28.10;82.70;;;;;;5040434;28;20032;-57
2021/09/03 08:00:10;;;;;;;9.43;6.30;;;28.50;84.10;;;;;;5047261;28;20017;-60
2021/09/03 08:02:36;;;;;;;7.18;5.90;;;27.80;82.30;;;;;;5048117;28;20033;-59
2021/09/03 08:05:04;;;;;;;11.30;6.28;;;27.80;82.60;;;;;;5050580;28;20109;-60
2021/09/03 08:07:30;;;;;;;9.57;5.80;;;27.50;82.70;;;;;;5044394;28;20025;-59
2021/09/03 08:09:56;;;;;;;9.52;6.20;;;27.30;83.10;;;;;;5050638;28;20100;-61
2021/09/03 08:12:22;;;;;;;11.70;6.10;;;27.70;83.30;;;;;;5044890;28;20092;-60
2021/09/03 08:14:47;;;;;;;8.05;6.40;;;28.30;83.20;;;;;;5042255;28;20032;-60
2021/09/03 08:17:13;;;;;;;8.00;5.97;;;28.60;81.60;;;;;;5046749;28;20444;-60
2021/09/03 08:19:38;;;;;;;9.82;6.55;;;28.70;81.30;;;;;;5041213;28;20033;-61
2021/09/03 08:22:05;;;;;;;9.68;5.97;;;28.40;82.30;;;;;;5045893;28;20078;-60
2021/09/03 08:24:30;;;;;;;11.00;6.10;;;28.50;82.90;;;;;;5043853;28;20117;-61
2021/09/03 08:26:56;;;;;;;8.73;6.40;;;28.20;82.50;;;;;;5043113;28;20108;-60
2021/09/03 08:29:22;;;;;;;10.80;6.13;;;27.90;82.90;;;;;;5035517;28;20422;-60
2021/09/03 08:31:48;;;;;;;10.80;6.60;;;28.20;83.30;;;;;;5041311;28;20109;-60
2021/09/03 08:34:13;;;;;;;7.13;6.38;;;28.80;80.10;;;;;;5041065;28;20568;-60
2021/09/03 08:36:39;;;;;;;8.57;5.78;;;27.90;83.00;;;;;;5049235;28;20035;-57
2021/09/03 08:39:05;;;;;;;8.68;6.45;;;28.60;83.30;;;;;;5035287;28;20045;-60
2021/09/03 08:41:30;;;;;;;9.77;6.68;;;28.60;82.60;;;;;;5044580;28;20465;-58
2021/09/03 08:43:59;;;;;;;12.02;6.43;;;28.60;82.20;;;;;;5048566;28;20536;-58
2021/09/03 08:46:25;;;;;;;6.90;5.82;;;28.70;82.30;;;;;;5043580;28;20078;-59
2021/09/03 08:48:51;;;;;;;7.95;6.45;;;29.00;80.10;;;;;;5042518;28;20029;-59
2021/09/03 08:51:16;;;;;;;7.65;6.07;;;28.90;79.80;;;;;;5043292;28;20130;-60
2021/09/03 08:53:42;;;;;;;7.53;5.95;;;28.60;80.90;;;;;;5056475;28;20405;-53
2021/09/03 08:56:07;;;;;;;13.10;5.32;;;28.90;82.20;;;;;;5049891;28;20029;-60
2021/09/03 08:58:33;;;;;;;8.50;5.63;;;28.80;80.90;;;;;;5053011;28;20432;-60
2021/09/03 09:01:06;;;;;;;7.35;5.97;;;28.30;82.80;;;;;;5049082;28;20471;-61
2021/09/03 09:03:35;;;;;;;;;;;27.80;84.10;;;;;;5048907;28;20032;-61
2021/09/03 09:06:01;;;;;;;9.30;6.95;;;27.70;82.90;;;;;;5048309;28;20333;-57
2021/09/03 09:08:28;;;;;;;7.93;6.63;;;27.20;84.50;;;;;;5046007;28;20025;-59
2021/09/03 09:11:25;;;;;;;8.88;6.00;;;27.20;84.10;;;;;;5040314;28;20030;-59
2021/09/03 09:13:50;;;;;;;8.30;6.30;;;27.50;85.50;;;;;;5039026;28;20037;-59
2021/09/03 09:16:19;;;;;;;8.43;6.20;;;28.20;84.30;;;;;;5041530;28;20032;-60
2021/09/03 09:18:50;;;;;;;8.55;6.00;;;28.20;83.90;;;;;;5043645;28;20060;-59
2021/09/03 09:21:22;;;;;;;8.52;5.30;;;28.90;83.20;;;;;;5039910;28;20026;-61
2021/09/03 09:23:57;;;;;;;7.13;6.07;;;28.50;82.30;;;;;;5040308;28;20064;-61
2021/09/03 09:26:43;;;;;;;9.43;5.60;;;29.30;82.40;;;;;;5041219;28;20130;-58
2021/09/03 09:29:31;;;;;;;8.48;5.75;;;29.50;82.30;;;;;;5039906;28;20056;-58
2021/09/03 09:32:09;;;;;;;9.18;5.88;;;29.50;82.10;;;;;;5043306;28;20030;-61
2021/09/03 09:34:37;;;;;;;8.93;5.80;;;29.80;80.60;;;;;;5044864;28;20447;-60
2021/09/03 09:37:05;;;;;;;10.38;5.93;;;29.50;81.30;;;;;;5039257;28;20438;-61
2021/09/03 09:39:51;;;;;;;9.35;5.75;;;29.90;80.30;;;;;;5042019;28;20092;-61
2021/09/03 09:42:35;;;;;;;8.30;6.38;;;30.20;78.50;;;;;;5038869;28;20092;-59
2021/09/03 09:45:06;;;;;;;7.63;5.85;;;28.70;82.10;;;;;;5044772;28;20033;-59
2021/09/03 09:47:32;;;;;;;8.55;5.07;;;28.50;82.70;;;;;;5032021;28;20451;-61
2021/09/03 09:49:58;;;;;;;7.47;5.25;;;28.20;81.90;;;;;;5039041;28;20109;-60
2021/09/03 09:52:37;;;;;;;7.60;5.85;;;28.40;80.50;;;;;;5043323;28;20028;-60
2021/09/03 09:55:05;;;;;;;8.07;5.57;;;28.70;83.30;;;;;;5038808;28;20030;-58
2021/09/03 09:57:33;;;;;;;10.70;5.65;;;29.00;81.40;;;;;;5039689;28;20436;-61
2021/09/03 10:00:04;;;;;;;7.72;5.47;;;28.70;80.50;;;;;;5046405;28;20029;-58
2021/09/03 10:02:33;;;;;;;10.20;5.95;;;28.30;79.40;;;;;;5032121;28;20029;-60
2021/09/03 10:05:01;;;;;;;6.40;5.07;;;28.10;81.00;;;;;;5046712;28;20069;-60
2021/09/03 10:07:27;;;;;;;11.40;5.68;;;28.20;81.60;;;;;;5040590;28;20028;-59
2021/09/03 10:09:52;;;;;;;9.32;5.35;;;27.80;79.00;;;;;;5034159;28;20116;-58
2021/09/03 10:12:19;;;;;;;7.80;5.40;;;27.80;80.50;;;;;;5046764;28;20112;-59
2021/09/03 10:14:45;;;;;;;6.72;5.07;;;27.70;80.80;;;;;;5045015;28;20040;-58
2021/09/03 10:17:12;;;;;;;6.75;5.53;;;27.80;79.40;;;;;;5033763;28;20109;-59
2021/09/03 10:19:41;;;;;;;6.97;5.55;;;27.70;79.40;;;;;;5038438;28;20408;-59
2021/09/03 10:22:09;;;;;;;9.35;5.40;;;27.70;79.00;;;;;;5046470;28;20024;-58
2021/09/03 10:24:37;;;;;;;6.47;4.82;;;27.40;79.80;;;;;;5041474;28;20641;-58
2021/09/03 10:27:05;;;;;;;5.55;4.72;;;27.50;80.50;;;;;;5038352;28;20030;-58
2021/09/03 10:29:35;;;;;;;6.22;4.80;;;27.60;79.60;;;;;;5036692;28;20017;-59
2021/09/03 10:32:06;;;;;;;6.95;5.32;;;27.20;76.80;;;;;;5039771;28;20036;-59
2021/09/03 10:34:41;;;;;;;8.35;5.15;;;27.20;80.90;;;;;;5030924;28;20090;-56
2021/09/03 10:40:04;;;;;;;7.25;4.72;;;27.20;78.30;;;;;;5036144;28;20067;-60
2021/09/03 10:42:58;;;;;;;10.38;4.88;;;26.90;77.10;;;;;;5037974;28;20025;-59
2021/09/03 10:45:36;;;;;;;6.40;4.75;;;26.80;78.80;;;;;;5038544;28;20028;-57
2021/09/03 10:48:07;;;;;;;6.22;4.88;;;26.70;80.30;;;;;;5040947;28;20502;-57
2021/09/03 10:50:56;;;;;;;6.13;4.70;;;26.80;81.40;;;;;;5040308;28;20447;-58
2021/09/03 10:53:27;;;;;;;8.63;4.32;;;26.90;79.70;;;;;;5026067;28;20491;-56
2021/09/03 10:56:09;;;;;;;8.45;4.63;;;26.90;79.80;;;;;;5039848;28;20022;-60
2021/09/03 10:58:45;;;;;;;8.80;4.68;;;26.50;78.70;;;;;;5039609;28;20108;-60
2021/09/03 11:01:13;;;;;;;6.70;5.00;;;26.50;80.30;;;;;;5039647;28;20719;-57
2021/09/03 11:03:44;;;;;;;6.10;4.18;;;26.30;78.80;;;;;;5041768;28;20099;-58
2021/09/03 11:06:25;;;;;;;6.05;4.40;;;26.20;81.00;;;;;;5041380;28;20040;-58
2021/09/03 11:08:53;;;;;;;6.63;4.80;;;26.20;80.10;;;;;;5043320;28;20035;-58
2021/09/03 11:11:34;;;;;;;7.68;4.35;;;26.20;78.90;;;;;;5046674;28;20049;-59
2021/09/03 11:14:10;;;;;;;8.35;5.07;;;26.20;79.80;;;;;;5042462;28;20032;-58
2021/09/03 11:16:35;;;;;;;5.93;4.28;;;26.10;80.40;;;;;;5035188;28;20028;-58
2021/09/03 11:19:12;;;;;;;6.80;5.32;;;25.90;80.50;;;;;;5038419;28;20021;-58
2021/09/03 11:21:39;;;;;;;8.27;4.68;;;26.00;78.40;;;;;;5040880;28;20094;-56
2021/09/03 11:24:07;;;;;;;9.38;5.07;;;25.90;79.30;;;;;;5050412;28;20108;-59
2021/09/03 11:26:35;;;;;;;5.30;4.20;;;26.00;81.80;;;;;;5050409;28;20071;-59
2021/09/03 11:29:04;;;;;;;7.78;5.03;;;26.00;80.20;;;;;;5052401;28;20021;-57
2021/09/03 11:31:31;;;;;;;5.38;4.45;;;26.10;79.90;;;;;;5050258;28;20029;-58
2021/09/03 11:33:59;;;;;;;10.48;4.72;;;26.20;80.50;;;;;;5052764;28;20490;-58
2021/09/03 11:36:25;;;;;;;7.60;5.10;;;26.10;79.50;;;;;;5048429;28;20087;-57
2021/09/03 11:38:56;;;;;;;7.57;4.88;;;25.90;81.20;;;;;;5050923;28;20060;-58
2021/09/03 11:41:22;;;;;;;8.57;4.35;;;25.90;82.00;;;;;;5047812;28;20021;-59
2021/09/03 11:43:49;;;;;;;8.80;4.80;;;25.90;82.40;;;;;;5065509;28;20495;-59
2021/09/03 11:46:20;;;;;;;7.60;4.50;;;25.80;79.20;;;;;;5035895;28;20040;-59
2021/09/03 11:48:48;;;;;;;6.00;4.28;;;25.70;81.40;;;;;;5043626;28;20083;-57
2021/09/03 11:51:21;;;;;;;7.82;4.35;;;25.70;79.50;;;;;;5047274;28;20056;-57
2021/09/03 11:53:47;;;;;;;8.40;4.53;;;25.60;79.60;;;;;;5042121;28;20096;-56
2021/09/03 11:56:15;;;;;;;8.20;4.20;;;25.60;78.50;;;;;;5041105;28;20586;-59
2021/09/03 11:58:41;;;;;;;6.70;4.38;;;25.50;76.10;;;;;;5049260;28;20029;-59
2021/09/03 12:01:07;;;;;;;8.77;4.45;;;25.40;79.80;;;;;;5049719;28;20029;-59
2021/09/03 12:03:44;;;;;;;5.82;4.50;;;25.50;81.50;;;;;;5049043;28;20028;-58
2021/09/03 12:06:13;;;;;;;6.50;4.00;;;25.40;79.60;;;;;;5050772;28;20496;-55
2021/09/03 12:08:39;;;;;;;4.88;3.60;;;25.30;77.90;;;;;;5044055;28;20044;-58
2021/09/03 12:11:16;;;;;;;6.35;4.47;;;25.30;79.00;;;;;;5042475;28;20017;-54
2021/09/03 12:13:56;;;;;;;6.75;4.15;;;25.30;80.80;;;;;;5037464;28;20033;-58
2021/09/03 12:16:23;;;;;;;6.28;4.13;;;25.30;80.80;;;;;;5043881;28;20462;-59
2021/09/03 12:18:53;;;;;;;6.25;4.60;;;25.30;81.20;;;;;;5039324;28;20555;-58
2021/09/03 12:21:28;;;;;;;7.97;5.30;;;25.30;82.40;;;;;;5045351;28;20037;-58
2021/09/03 12:23:54;;;;;;;5.35;4.45;;;25.20;80.80;;;;;;5043308;28;20466;-60
2021/09/03 12:26:23;;;;;;;7.30;5.15;;;25.10;79.70;;;;;;5045474;28;20113;-59
2021/09/03 12:28:53;;;;;;;8.73;4.57;;;25.10;80.60;;;;;;5041568;28;20169;-58
2021/09/03 12:31:33;;;;;;;4.75;3.92;;;25.10;78.30;;;;;;5043407;28;20021;-59
2021/09/03 12:34:00;;;;;;;7.88;4.53;;;25.00;80.10;;;;;;5043080;28;20104;-59
2021/09/03 12:36:26;;;;;;;10.40;4.13;;;25.00;80.10;;;;;;5043218;28;20543;-59
2021/09/03 12:38:58;;;;;;;6.05;4.68;;;25.00;82.70;;;;;;5043453;28;20021;-58
2021/09/03 12:41:30;;;;;;;8.15;4.80;;;24.90;81.00;;;;;;5040846;28;20528;-59